createdAt,value
2017-07-18T00:00:41.702Z,0
2017-07-18T00:01:41.640Z,0
2017-07-18T00:02:41.617Z,0
2017-07-18T00:03:41.584Z,0
2017-07-18T00:04:41.582Z,0
2017-07-18T00:05:41.542Z,0
2017-07-18T00:06:41.534Z,0
2017-07-18T00:07:41.505Z,0
2017-07-18T00:08:41.490Z,0
2017-07-18T00:09:41.458Z,0
2017-07-18T00:10:41.441Z,0
2017-07-18T00:11:41.414Z,0
2017-07-18T00:12:41.400Z,0
2017-07-18T00:13:41.368Z,0
2017-07-18T00:14:41.357Z,0
2017-07-18T00:15:41.320Z,0
2017-07-18T00:16:41.309Z,0
2017-07-18T00:17:41.287Z,0
2017-07-18T00:18:41.314Z,0
2017-07-18T00:19:41.242Z,0
2017-07-18T00:20:41.224Z,0
2017-07-18T00:21:41.193Z,0
2017-07-18T00:22:41.176Z,0
2017-07-18T00:23:41.148Z,0
2017-07-18T00:24:40.837Z,0
2017-07-18T00:25:41.110Z,0
2017-07-18T00:26:41.100Z,0
2017-07-18T00:27:41.063Z,0
2017-07-18T00:28:41.091Z,0
2017-07-18T00:29:40.736Z,0
2017-07-18T00:30:41.007Z,0
2017-07-18T00:31:40.686Z,0
2017-07-18T00:32:40.671Z,0
2017-07-18T00:33:40.938Z,0
2017-07-18T00:34:40.920Z,0
2017-07-18T00:35:40.590Z,0
2017-07-18T00:36:40.578Z,0
2017-07-18T00:37:40.256Z,0
2017-07-18T00:38:40.831Z,0
2017-07-18T00:39:40.500Z,0
2017-07-18T00:40:40.802Z,0
2017-07-18T00:41:40.467Z,0
2017-07-18T00:42:40.752Z,0
2017-07-18T00:43:40.709Z,0
2017-07-18T00:44:40.714Z,0
2017-07-18T00:45:40.676Z,0
2017-07-18T00:46:40.408Z,0
2017-07-18T00:47:40.034Z,0
2017-07-18T00:48:40.619Z,0
2017-07-18T00:49:40.300Z,0
2017-07-18T00:50:40.566Z,0
2017-07-18T00:51:40.542Z,0
2017-07-18T00:52:40.539Z,0
2017-07-18T00:53:40.493Z,0
2017-07-18T00:54:40.488Z,0
2017-07-18T00:55:40.447Z,0
2017-07-18T00:56:40.443Z,0
2017-07-18T00:57:40.409Z,0
2017-07-18T00:58:40.387Z,0
2017-07-18T00:59:40.062Z,0
2017-07-18T01:00:40.343Z,0
2017-07-18T01:01:40.328Z,0
2017-07-18T01:02:40.310Z,0
2017-07-18T01:03:40.272Z,0
2017-07-18T01:04:39.961Z,0
2017-07-18T01:05:40.228Z,0
2017-07-18T01:06:40.224Z,0
2017-07-18T01:07:40.182Z,0
2017-07-18T01:08:39.868Z,0
2017-07-18T01:09:40.136Z,0
2017-07-18T01:10:40.121Z,0
2017-07-18T01:11:40.096Z,0
2017-07-18T01:12:40.097Z,0
2017-07-18T01:13:40.046Z,0
2017-07-18T01:14:39.737Z,0
2017-07-18T01:15:40.013Z,0
2017-07-18T01:16:39.694Z,0
2017-07-18T01:17:39.661Z,0
2017-07-18T01:18:39.942Z,0
2017-07-18T01:19:39.620Z,0
2017-07-18T01:20:39.918Z,0
2017-07-18T01:21:39.890Z,0
2017-07-18T01:22:39.855Z,0
2017-07-18T01:23:39.855Z,0
2017-07-18T01:24:39.825Z,0
2017-07-18T01:25:39.782Z,0
2017-07-18T01:26:39.771Z,0
2017-07-18T01:27:39.733Z,0
2017-07-18T01:28:39.728Z,0
2017-07-18T01:29:39.693Z,0
2017-07-18T01:30:39.689Z,0
2017-07-18T01:31:39.664Z,0
2017-07-18T01:32:39.632Z,0
2017-07-18T01:33:39.013Z,0
2017-07-18T01:34:39.596Z,0
2017-07-18T01:35:39.550Z,0
2017-07-18T01:36:39.541Z,0
2017-07-18T01:37:39.510Z,0
2017-07-18T01:38:39.498Z,0
2017-07-18T01:39:39.463Z,0
2017-07-18T01:40:39.444Z,0
2017-07-18T01:41:39.433Z,0
2017-07-18T01:42:39.406Z,0
2017-07-18T01:43:39.366Z,0
2017-07-18T01:44:39.361Z,0
2017-07-18T01:45:39.343Z,0
2017-07-18T01:46:39.313Z,0
2017-07-18T01:47:39.294Z,0
2017-07-18T01:48:39.272Z,0
2017-07-18T01:49:38.945Z,0
2017-07-18T01:50:38.649Z,0
2017-07-18T01:51:39.206Z,0
2017-07-18T01:52:39.175Z,0
2017-07-18T01:53:39.152Z,0
2017-07-18T01:54:39.137Z,0
2017-07-18T01:55:39.103Z,0
2017-07-18T01:56:39.120Z,0
2017-07-18T01:57:38.468Z,0
2017-07-18T01:58:39.047Z,0
2017-07-18T01:59:39.006Z,0
2017-07-18T02:00:39.005Z,0
2017-07-18T02:01:38.967Z,0
2017-07-18T02:02:38.657Z,0
2017-07-18T02:03:38.920Z,0
2017-07-18T02:04:38.311Z,0
2017-07-18T02:05:38.887Z,0
2017-07-18T02:06:38.861Z,0
2017-07-18T02:07:38.532Z,0
2017-07-18T02:08:38.517Z,0
2017-07-18T02:09:38.484Z,0
2017-07-18T02:10:38.800Z,0
2017-07-18T02:11:38.736Z,0
2017-07-18T02:12:38.138Z,0
2017-07-18T02:13:38.690Z,0
2017-07-18T02:14:38.695Z,0
2017-07-18T02:15:38.650Z,0
2017-07-18T02:16:38.629Z,0
2017-07-18T02:17:38.607Z,0
2017-07-18T02:18:38.606Z,0
2017-07-18T02:19:38.551Z,0
2017-07-18T02:20:38.543Z,0
2017-07-18T02:21:38.221Z,0
2017-07-18T02:22:38.502Z,0
2017-07-18T02:23:38.463Z,0
2017-07-18T02:24:38.452Z,0
2017-07-18T02:25:38.419Z,0
2017-07-18T02:26:38.106Z,0
2017-07-18T02:27:38.375Z,0
2017-07-18T02:28:38.059Z,0
2017-07-18T02:29:38.021Z,0
2017-07-18T02:30:38.319Z,0
2017-07-18T02:31:38.283Z,0
2017-07-18T02:32:38.264Z,0
2017-07-18T02:33:37.931Z,0
2017-07-18T02:34:38.279Z,0
2017-07-18T02:35:37.890Z,0
2017-07-18T02:36:38.170Z,0
2017-07-18T02:37:38.150Z,0
2017-07-18T02:38:38.124Z,0
2017-07-18T02:39:38.105Z,0
2017-07-18T02:40:38.093Z,0
2017-07-18T02:41:38.058Z,0
2017-07-18T02:42:38.037Z,0
2017-07-18T02:43:38.010Z,0
2017-07-18T02:44:38.027Z,0
2017-07-18T02:45:37.968Z,0
2017-07-18T02:46:37.652Z,0
2017-07-18T02:47:37.756Z,0
2017-07-18T02:48:37.895Z,0
2017-07-18T02:49:37.869Z,0
2017-07-18T02:50:37.871Z,0
2017-07-18T02:51:37.529Z,0
2017-07-18T02:52:37.810Z,0
2017-07-18T02:53:37.488Z,0
2017-07-18T02:54:37.762Z,0
2017-07-18T02:55:37.727Z,0
2017-07-18T02:56:37.706Z,0
2017-07-18T02:57:37.681Z,0
2017-07-18T02:58:37.703Z,0
2017-07-18T02:59:37.638Z,0
2017-07-18T03:00:37.620Z,0
2017-07-18T03:01:37.286Z,0
2017-07-18T03:02:37.571Z,0
2017-07-18T03:03:37.544Z,0
2017-07-18T03:04:37.532Z,0
2017-07-18T03:05:37.492Z,0
2017-07-18T03:06:37.537Z,0
2017-07-18T03:07:37.451Z,0
2017-07-18T03:08:37.453Z,0
2017-07-18T03:09:37.102Z,0
2017-07-18T03:10:37.394Z,0
2017-07-18T03:11:37.350Z,0
2017-07-18T03:12:37.344Z,0
2017-07-18T03:13:37.302Z,0
2017-07-18T03:14:37.363Z,0
2017-07-18T03:15:37.257Z,0
2017-07-18T03:16:37.247Z,0
2017-07-18T03:17:37.209Z,5
2017-07-18T03:18:37.254Z,5
2017-07-18T03:19:37.160Z,5
2017-07-18T03:20:37.151Z,5
2017-07-18T03:21:37.120Z,5
2017-07-18T03:22:37.131Z,5
2017-07-18T03:23:37.068Z,5
2017-07-18T03:24:37.061Z,10
2017-07-18T03:25:37.031Z,10
2017-07-18T03:26:37.023Z,10
2017-07-18T03:27:36.985Z,10
2017-07-18T03:28:36.986Z,10
2017-07-18T03:29:36.939Z,10
2017-07-18T03:30:36.325Z,15
2017-07-18T03:31:36.593Z,15
2017-07-18T03:32:36.287Z,15
2017-07-18T03:33:36.245Z,20
2017-07-18T03:34:36.544Z,20
2017-07-18T03:35:36.793Z,20
2017-07-18T03:36:36.482Z,20
2017-07-18T03:37:36.445Z,25
2017-07-18T03:38:36.740Z,25
2017-07-18T03:39:36.700Z,25
2017-07-18T03:40:36.098Z,30
2017-07-18T03:41:36.355Z,30
2017-07-18T03:42:36.338Z,30
2017-07-18T03:43:36.310Z,35
2017-07-18T03:44:36.295Z,35
2017-07-18T03:45:35.970Z,40
2017-07-18T03:46:36.266Z,40
2017-07-18T03:47:36.214Z,40
2017-07-18T03:48:36.194Z,45
2017-07-18T03:49:35.866Z,45
2017-07-18T03:50:36.449Z,50
2017-07-18T03:51:36.117Z,50
2017-07-18T03:52:36.407Z,55
2017-07-18T03:53:36.379Z,55
2017-07-18T03:54:36.366Z,55
2017-07-18T03:55:36.026Z,60
2017-07-18T03:56:36.321Z,60
2017-07-18T03:57:35.976Z,65
2017-07-18T03:58:36.262Z,70
2017-07-18T03:59:35.929Z,70
2017-07-18T04:00:35.911Z,75
2017-07-18T04:01:35.885Z,80
2017-07-18T04:02:35.875Z,80
2017-07-18T04:03:35.843Z,85
2017-07-18T04:04:35.821Z,90
2017-07-18T04:05:35.790Z,90
2017-07-18T04:06:35.776Z,95
2017-07-18T04:07:36.038Z,100
2017-07-18T04:08:36.039Z,100
2017-07-18T04:09:35.994Z,105
2017-07-18T04:10:36.000Z,105
2017-07-18T04:11:35.647Z,110
2017-07-18T04:12:35.933Z,110
2017-07-18T04:13:35.904Z,115
2017-07-18T04:14:35.881Z,110
2017-07-18T04:15:35.559Z,120
2017-07-18T04:16:35.842Z,125
2017-07-18T04:17:35.516Z,130
2017-07-18T04:18:35.789Z,130
2017-07-18T04:19:35.462Z,135
2017-07-18T04:20:35.447Z,135
2017-07-18T04:21:35.714Z,140
2017-07-18T04:22:35.406Z,140
2017-07-18T04:23:35.673Z,145
2017-07-18T04:24:35.661Z,145
2017-07-18T04:25:35.661Z,150
2017-07-18T04:26:35.604Z,150
2017-07-18T04:27:35.273Z,155
2017-07-18T04:28:35.562Z,155
2017-07-18T04:29:35.224Z,160
2017-07-18T04:30:35.506Z,160
2017-07-18T04:31:35.475Z,165
2017-07-18T04:32:35.474Z,165
2017-07-18T04:33:35.131Z,170
2017-07-18T04:34:35.412Z,170
2017-07-18T04:35:35.087Z,175
2017-07-18T04:36:35.377Z,175
2017-07-18T04:37:35.349Z,180
2017-07-18T04:38:35.321Z,180
2017-07-18T04:39:34.990Z,185
2017-07-18T04:40:35.277Z,185
2017-07-18T04:41:34.964Z,190
2017-07-18T04:42:35.244Z,190
2017-07-18T04:43:35.194Z,195
2017-07-18T04:44:34.893Z,195
2017-07-18T04:45:35.153Z,200
2017-07-18T04:46:34.838Z,200
2017-07-18T04:47:35.574Z,200
2017-07-18T04:48:35.090Z,205
2017-07-18T04:49:34.466Z,205
2017-07-18T04:50:34.754Z,205
2017-07-18T04:51:35.009Z,210
2017-07-18T04:52:34.720Z,210
2017-07-18T04:53:34.963Z,215
2017-07-18T04:54:34.656Z,215
2017-07-18T04:55:34.920Z,215
2017-07-18T04:56:34.899Z,225
2017-07-18T04:57:34.872Z,220
2017-07-18T04:58:34.859Z,225
2017-07-18T04:59:34.904Z,225
2017-07-18T05:00:34.520Z,225
2017-07-18T05:01:34.774Z,230
2017-07-18T05:02:34.784Z,230
2017-07-18T05:03:34.435Z,235
2017-07-18T05:04:34.714Z,235
2017-07-18T05:05:34.694Z,240
2017-07-18T05:06:34.375Z,240
2017-07-18T05:07:34.653Z,245
2017-07-18T05:08:34.334Z,245
2017-07-18T05:09:34.300Z,250
2017-07-18T05:10:34.695Z,255
2017-07-18T05:11:34.379Z,255
2017-07-18T05:12:34.250Z,260
2017-07-18T05:13:34.506Z,265
2017-07-18T05:14:34.201Z,265
2017-07-18T05:15:34.463Z,270
2017-07-18T05:16:34.456Z,270
2017-07-18T05:17:33.822Z,275
2017-07-18T05:18:34.416Z,275
2017-07-18T05:19:34.386Z,280
2017-07-18T05:20:34.364Z,285
2017-07-18T05:21:34.340Z,285
2017-07-18T05:22:34.014Z,295
2017-07-18T05:23:34.297Z,295
2017-07-18T05:24:34.274Z,295
2017-07-18T05:25:33.947Z,275
2017-07-18T05:26:34.229Z,290
2017-07-18T05:27:34.188Z,290
2017-07-18T05:28:34.193Z,300
2017-07-18T05:29:33.850Z,315
2017-07-18T05:30:34.137Z,320
2017-07-18T05:31:33.508Z,330
2017-07-18T05:32:34.100Z,335
2017-07-18T05:33:34.060Z,335
2017-07-18T05:34:33.151Z,340
2017-07-18T05:35:33.736Z,345
2017-07-18T05:36:33.401Z,350
2017-07-18T05:37:33.974Z,350
2017-07-18T05:38:33.957Z,365
2017-07-18T05:39:33.636Z,395
2017-07-18T05:40:33.319Z,415
2017-07-18T05:41:33.896Z,415
2017-07-18T05:42:33.881Z,420
2017-07-18T05:43:33.852Z,420
2017-07-18T05:44:33.852Z,415
2017-07-18T05:45:33.798Z,415
2017-07-18T05:46:33.493Z,410
2017-07-18T05:47:33.460Z,410
2017-07-18T05:48:33.456Z,415
2017-07-18T05:49:33.423Z,420
2017-07-18T05:50:33.425Z,420
2017-07-18T05:51:33.674Z,420
2017-07-18T05:52:33.372Z,420
2017-07-18T05:53:33.627Z,420
2017-07-18T05:54:34.768Z,420
2017-07-18T05:55:34.405Z,410
2017-07-18T05:56:33.072Z,405
2017-07-18T05:57:33.552Z,405
2017-07-18T05:58:33.243Z,415
2017-07-18T05:59:33.553Z,410
2017-07-18T06:00:33.500Z,410
2017-07-18T06:01:33.180Z,415
2017-07-18T06:02:33.480Z,420
2017-07-18T06:03:33.435Z,420
2017-07-18T06:04:33.442Z,420
2017-07-18T06:05:33.419Z,425
2017-07-18T06:06:33.391Z,430
2017-07-18T06:07:33.380Z,430
2017-07-18T06:08:33.064Z,435
2017-07-18T06:09:33.331Z,445
2017-07-18T06:10:33.018Z,450
2017-07-18T06:11:32.994Z,455
2017-07-18T06:12:32.997Z,460
2017-07-18T06:13:32.962Z,465
2017-07-18T06:14:32.954Z,470
2017-07-18T06:15:33.225Z,470
2017-07-18T06:16:33.212Z,475
2017-07-18T06:17:32.893Z,485
2017-07-18T06:18:32.917Z,580
2017-07-18T06:19:33.151Z,880
2017-07-18T06:20:32.856Z,1165
2017-07-18T06:21:32.819Z,1285
2017-07-18T06:22:32.812Z,1295
2017-07-18T06:23:32.798Z,1305
2017-07-18T06:24:33.073Z,1320
2017-07-18T06:25:33.055Z,1345
2017-07-18T06:26:33.201Z,1315
2017-07-18T06:27:33.011Z,1345
2017-07-18T06:28:33.024Z,1365
2017-07-18T06:29:32.688Z,1365
2017-07-18T06:30:32.982Z,1390
2017-07-18T06:31:32.367Z,1335
2017-07-18T06:32:32.952Z,1340
2017-07-18T06:33:32.630Z,1335
2017-07-18T06:34:32.792Z,1400
2017-07-18T06:35:32.915Z,1470
2017-07-18T06:36:32.882Z,1495
2017-07-18T06:37:32.855Z,1490
2017-07-18T06:38:32.563Z,1485
2017-07-18T06:39:32.538Z,1450
2017-07-18T06:40:32.846Z,1480
2017-07-18T06:41:32.513Z,1505
2017-07-18T06:42:32.797Z,1510
2017-07-18T06:43:32.480Z,1535
2017-07-18T06:44:32.771Z,1575
2017-07-18T06:45:32.441Z,1560
2017-07-18T06:46:32.756Z,1520
2017-07-18T06:47:32.724Z,1515
2017-07-18T06:48:32.413Z,1545
2017-07-18T06:49:32.708Z,1535
2017-07-18T06:50:32.694Z,1520
2017-07-18T06:51:32.656Z,1465
2017-07-18T06:52:32.657Z,1455
2017-07-18T06:53:33.387Z,1515
2017-07-18T06:54:34.052Z,1430
2017-07-18T06:55:33.344Z,1425
2017-07-18T06:56:35.886Z,1430
2017-07-18T06:57:35.048Z,1415
2017-07-18T06:58:32.295Z,1405
2017-07-18T06:59:32.259Z,1405
2017-07-18T07:00:32.547Z,1380
2017-07-18T07:01:31.930Z,1340
2017-07-18T07:02:32.531Z,1230
2017-07-18T07:03:32.499Z,1165
2017-07-18T07:04:31.901Z,1100
2017-07-18T07:05:32.470Z,1060
2017-07-18T07:06:32.472Z,1020
2017-07-18T07:07:32.143Z,970
2017-07-18T07:08:32.440Z,855
2017-07-18T07:09:32.127Z,850
2017-07-18T07:10:31.830Z,800
2017-07-18T07:11:32.400Z,855
2017-07-18T07:12:32.821Z,865
2017-07-18T07:13:32.541Z,880
2017-07-18T07:14:32.097Z,1250
2017-07-18T07:15:32.285Z,1870
2017-07-18T07:16:32.054Z,1710
2017-07-18T07:17:32.344Z,2095
2017-07-18T07:18:32.025Z,1335
2017-07-18T07:19:32.004Z,2130
2017-07-18T07:20:32.298Z,2065
2017-07-18T07:21:32.324Z,2025
2017-07-18T07:22:31.974Z,2030
2017-07-18T07:23:32.246Z,1975
2017-07-18T07:24:31.959Z,1820
2017-07-18T07:25:31.935Z,1845
2017-07-18T07:26:32.305Z,1895
2017-07-18T07:27:31.613Z,1665
2017-07-18T07:28:32.215Z,1745
2017-07-18T07:29:31.891Z,1640
2017-07-18T07:30:31.901Z,1295
2017-07-18T07:31:31.861Z,1750
2017-07-18T07:32:32.157Z,1360
2017-07-18T07:33:32.133Z,1560
2017-07-18T07:34:32.133Z,1630
2017-07-18T07:35:31.823Z,1750
2017-07-18T07:36:32.126Z,1765
2017-07-18T07:37:31.790Z,1770
2017-07-18T07:38:32.083Z,1770
2017-07-18T07:39:32.062Z,1880
2017-07-18T07:40:31.816Z,1860
2017-07-18T07:41:31.753Z,1825
2017-07-18T07:42:31.748Z,1855
2017-07-18T07:43:32.015Z,1885
2017-07-18T07:44:32.022Z,2030
2017-07-18T07:45:31.696Z,1980
2017-07-18T07:46:31.708Z,2030
2017-07-18T07:47:31.970Z,2145
2017-07-18T07:48:31.962Z,2095
2017-07-18T07:49:31.659Z,2035
2017-07-18T07:50:31.664Z,1990
2017-07-18T07:51:31.940Z,2085
2017-07-18T07:52:31.928Z,2050
2017-07-18T07:53:31.614Z,2015
2017-07-18T07:54:31.908Z,2040
2017-07-18T07:55:31.316Z,1995
2017-07-18T07:56:31.891Z,1915
2017-07-18T07:57:31.870Z,1950
2017-07-18T07:58:31.857Z,1985
2017-07-18T07:59:31.869Z,2050
2017-07-18T08:00:31.836Z,2080
2017-07-18T08:01:31.533Z,2135
2017-07-18T08:02:31.836Z,2160
2017-07-18T08:03:32.423Z,2130
2017-07-18T08:04:31.795Z,2165
2017-07-18T08:05:31.494Z,2125
2017-07-18T08:06:31.783Z,2140
2017-07-18T08:07:31.777Z,2135
2017-07-18T08:08:31.913Z,2070
2017-07-18T08:09:31.744Z,2155
2017-07-18T08:10:31.612Z,2210
2017-07-18T08:11:31.765Z,2215
2017-07-18T08:12:31.975Z,2210
2017-07-18T08:13:31.323Z,2220
2017-07-18T08:14:31.523Z,2120
2017-07-18T08:15:31.397Z,2145
2017-07-18T08:16:31.396Z,2210
2017-07-18T08:17:31.677Z,2285
2017-07-18T08:18:31.364Z,2285
2017-07-18T08:19:31.655Z,2365
2017-07-18T08:20:31.643Z,2365
2017-07-18T08:21:31.646Z,2345
2017-07-18T08:22:31.631Z,2325
2017-07-18T08:23:31.613Z,2310
2017-07-18T08:24:31.607Z,2330
2017-07-18T08:25:31.618Z,2335
2017-07-18T08:26:31.298Z,2300
2017-07-18T08:27:31.641Z,2205
2017-07-18T08:28:31.302Z,2305
2017-07-18T08:29:31.321Z,2270
2017-07-18T08:30:31.735Z,2290
2017-07-18T08:31:31.587Z,2400
2017-07-18T08:32:31.251Z,2355
2017-07-18T08:33:31.538Z,2370
2017-07-18T08:34:30.633Z,2400
2017-07-18T08:35:30.921Z,2375
2017-07-18T08:36:31.512Z,2350
2017-07-18T08:37:31.280Z,2330
2017-07-18T08:38:31.196Z,2315
2017-07-18T08:39:31.483Z,2400
2017-07-18T08:40:31.180Z,2495
2017-07-18T08:41:31.470Z,2545
2017-07-18T08:42:31.456Z,2485
2017-07-18T08:43:31.469Z,2430
2017-07-18T08:44:31.445Z,2345
2017-07-18T08:45:31.436Z,2290
2017-07-18T08:46:31.144Z,2260
2017-07-18T08:47:31.127Z,2205
2017-07-18T08:48:31.139Z,2150
2017-07-18T08:49:31.445Z,2295
2017-07-18T08:50:31.403Z,2340
2017-07-18T08:51:31.398Z,2415
2017-07-18T08:52:31.400Z,2175
2017-07-18T08:53:31.092Z,2255
2017-07-18T08:54:31.401Z,2420
2017-07-18T08:55:31.652Z,2370
2017-07-18T08:56:31.389Z,2420
2017-07-18T08:57:32.082Z,2405
2017-07-18T08:58:31.037Z,2405
2017-07-18T08:59:31.402Z,2500
2017-07-18T09:00:31.475Z,2465
2017-07-18T09:01:31.779Z,2470
2017-07-18T09:02:32.234Z,2420
2017-07-18T09:03:31.849Z,2480
2017-07-18T09:04:30.777Z,2600
2017-07-18T09:05:31.314Z,2565
2017-07-18T09:06:31.464Z,2505
2017-07-18T09:07:31.307Z,2525
2017-07-18T09:08:31.288Z,2630
2017-07-18T09:09:30.992Z,2655
2017-07-18T09:10:31.036Z,2685
2017-07-18T09:11:30.988Z,2625
2017-07-18T09:12:31.307Z,2590
2017-07-18T09:13:31.301Z,2685
2017-07-18T09:14:31.601Z,2810
2017-07-18T09:15:31.289Z,2430
2017-07-18T09:16:31.263Z,2260
2017-07-18T09:17:30.945Z,1320
2017-07-18T09:18:30.991Z,1475
2017-07-18T09:19:31.227Z,1280
2017-07-18T09:20:31.222Z,1215
2017-07-18T09:21:31.246Z,1300
2017-07-18T09:22:31.214Z,1580
2017-07-18T09:23:30.906Z,1685
2017-07-18T09:24:30.903Z,1665
2017-07-18T09:25:31.200Z,2075
2017-07-18T09:26:30.889Z,2215
2017-07-18T09:27:31.173Z,2840
2017-07-18T09:28:30.580Z,2875
2017-07-18T09:29:30.860Z,2840
2017-07-18T09:30:30.890Z,2995
2017-07-18T09:31:30.848Z,2105
2017-07-18T09:32:31.144Z,2580
2017-07-18T09:33:30.851Z,2060
2017-07-18T09:34:31.143Z,1900
2017-07-18T09:35:30.833Z,1750
2017-07-18T09:36:30.523Z,1710
2017-07-18T09:37:30.824Z,2750
2017-07-18T09:38:30.804Z,2870
2017-07-18T09:39:31.103Z,2665
2017-07-18T09:40:31.086Z,2565
2017-07-18T09:41:30.497Z,2675
2017-07-18T09:42:31.070Z,2800
2017-07-18T09:43:31.066Z,2825
2017-07-18T09:44:31.057Z,2830
2017-07-18T09:45:31.048Z,2840
2017-07-18T09:46:30.752Z,2825
2017-07-18T09:47:31.048Z,2830
2017-07-18T09:48:31.168Z,2730
2017-07-18T09:49:30.757Z,2750
2017-07-18T09:50:30.742Z,2685
2017-07-18T09:51:30.729Z,2630
2017-07-18T09:52:31.016Z,2645
2017-07-18T09:53:30.707Z,2680
2017-07-18T09:54:30.997Z,2685
2017-07-18T09:55:30.699Z,2745
2017-07-18T09:56:30.997Z,2795
2017-07-18T09:57:30.683Z,2805
2017-07-18T09:58:30.690Z,2895
2017-07-18T09:59:30.978Z,2935
2017-07-18T10:01:30.666Z,2785
2017-07-18T10:02:30.419Z,2830
2017-07-18T10:03:30.958Z,2885
2017-07-18T10:04:30.948Z,2875
2017-07-18T10:05:30.947Z,2880
2017-07-18T10:06:30.652Z,2885
2017-07-18T10:07:30.646Z,2840
2017-07-18T10:08:30.648Z,2835
2017-07-18T10:09:30.928Z,2865
2017-07-18T10:10:30.932Z,2885
2017-07-18T10:11:30.627Z,2775
2017-07-18T10:12:30.690Z,2755
2017-07-18T10:13:30.316Z,2810
2017-07-18T10:14:30.907Z,2780
2017-07-18T10:15:30.059Z,2850
2017-07-18T10:16:31.145Z,2775
2017-07-18T10:17:30.603Z,2665
2017-07-18T10:18:30.595Z,2805
2017-07-18T10:19:30.589Z,2910
2017-07-18T10:20:30.290Z,2975
2017-07-18T10:21:30.886Z,2945
2017-07-18T10:22:30.591Z,2405
2017-07-18T10:23:30.580Z,2445
2017-07-18T10:24:30.568Z,2310
2017-07-18T10:25:30.273Z,1970
2017-07-18T10:26:31.504Z,2805
2017-07-18T10:27:30.862Z,2875
2017-07-18T10:28:30.864Z,2920
2017-07-18T10:29:30.848Z,2490
2017-07-18T10:30:30.843Z,2100
2017-07-18T10:31:30.539Z,1985
2017-07-18T10:32:30.543Z,1915
2017-07-18T10:33:30.536Z,1245
2017-07-18T10:34:30.926Z,895
2017-07-18T10:35:30.518Z,845
2017-07-18T10:36:30.517Z,895
2017-07-18T10:37:30.508Z,1920
2017-07-18T10:38:30.509Z,2720
2017-07-18T10:39:30.500Z,2975
2017-07-18T10:40:30.492Z,2880
2017-07-18T10:41:30.784Z,2990
2017-07-18T10:42:30.803Z,2935
2017-07-18T10:43:30.490Z,2915
2017-07-18T10:44:30.780Z,2995
2017-07-18T10:45:30.761Z,2945
2017-07-18T10:46:30.485Z,2910
2017-07-18T10:47:30.164Z,2915
2017-07-18T10:48:30.750Z,3035
2017-07-18T10:49:30.441Z,2940
2017-07-18T10:50:30.743Z,2905
2017-07-18T10:51:30.490Z,3010
2017-07-18T10:52:30.848Z,3035
2017-07-18T10:53:30.664Z,2915
2017-07-18T10:54:30.720Z,2975
2017-07-18T10:55:30.744Z,2855
2017-07-18T10:56:30.711Z,2890
2017-07-18T10:57:30.410Z,2950
2017-07-18T10:58:30.795Z,2925
2017-07-18T10:59:30.906Z,3005
2017-07-18T11:00:30.403Z,2995
2017-07-18T11:01:30.696Z,3060
2017-07-18T11:02:30.693Z,3110
2017-07-18T11:03:30.399Z,3080
2017-07-18T11:04:30.690Z,3080
2017-07-18T11:05:30.398Z,3160
2017-07-18T11:06:30.677Z,3165
2017-07-18T11:07:30.392Z,2910
2017-07-18T11:08:30.383Z,2755
2017-07-18T11:09:30.663Z,3050
2017-07-18T11:10:30.653Z,3105
2017-07-18T11:11:30.872Z,3040
2017-07-18T11:12:30.657Z,3135
2017-07-18T11:13:30.090Z,3140
2017-07-18T11:14:30.356Z,2985
2017-07-18T11:15:30.076Z,2925
2017-07-18T11:16:30.118Z,2885
2017-07-18T11:17:30.714Z,2940
2017-07-18T11:18:30.657Z,3055
2017-07-18T11:19:30.346Z,3020
2017-07-18T11:20:30.343Z,3075
2017-07-18T11:21:30.642Z,3075
2017-07-18T11:22:30.404Z,3045
2017-07-18T11:23:30.342Z,3005
2017-07-18T11:24:30.661Z,2965
2017-07-18T11:25:30.628Z,2905
2017-07-18T11:26:30.354Z,2915
2017-07-18T11:27:30.028Z,2970
2017-07-18T11:28:30.631Z,3035
2017-07-18T11:29:30.623Z,3090
2017-07-18T11:30:30.622Z,3065
2017-07-18T11:31:30.620Z,3075
2017-07-18T11:32:30.615Z,3020
2017-07-18T11:33:30.615Z,2930
2017-07-18T11:34:30.313Z,2925
2017-07-18T11:35:30.318Z,2980
2017-07-18T11:36:30.317Z,3030
2017-07-18T11:37:30.318Z,3080
2017-07-18T11:38:30.602Z,3060
2017-07-18T11:39:30.635Z,3080
2017-07-18T11:40:30.603Z,3085
2017-07-18T11:41:30.599Z,3015
2017-07-18T11:42:30.596Z,2955
2017-07-18T11:43:30.599Z,3100
2017-07-18T11:44:30.599Z,3090
2017-07-18T11:45:30.589Z,3000
2017-07-18T11:46:30.296Z,2995
2017-07-18T11:47:30.292Z,3030
2017-07-18T11:48:30.598Z,3195
2017-07-18T11:49:30.587Z,3220
2017-07-18T11:50:30.587Z,3225
2017-07-18T11:51:30.291Z,3145
2017-07-18T11:52:30.586Z,3000
2017-07-18T11:53:30.580Z,3090
2017-07-18T11:54:30.302Z,3225
2017-07-18T11:55:30.288Z,3120
2017-07-18T11:56:30.590Z,3125
2017-07-18T11:57:30.581Z,3095
2017-07-18T11:58:30.583Z,3125
2017-07-18T11:59:30.583Z,3180
2017-07-18T12:00:30.278Z,3165
2017-07-18T12:01:30.277Z,3165
2017-07-18T12:02:30.276Z,3185
2017-07-18T12:03:30.282Z,3210
2017-07-18T12:04:30.566Z,3240
2017-07-18T12:05:30.270Z,3285
2017-07-18T12:06:30.570Z,3315
2017-07-18T12:07:30.279Z,3215
2017-07-18T12:08:30.273Z,3145
2017-07-18T12:09:30.567Z,3085
2017-07-18T12:10:30.271Z,3045
2017-07-18T12:11:30.569Z,3105
2017-07-18T12:12:30.568Z,3215
2017-07-18T12:13:30.264Z,3315
2017-07-18T12:14:30.569Z,3345
2017-07-18T12:15:30.571Z,3380
2017-07-18T12:16:30.267Z,3445
2017-07-18T12:17:30.278Z,3395
2017-07-18T12:18:30.257Z,3290
2017-07-18T12:19:30.263Z,3285
2017-07-18T12:20:30.554Z,3240
2017-07-18T12:21:30.552Z,3355
2017-07-18T12:22:30.252Z,3415
2017-07-18T12:23:30.267Z,3420
2017-07-18T12:24:30.556Z,3370
2017-07-18T12:25:30.253Z,3320
2017-07-18T12:26:30.544Z,3340
2017-07-18T12:27:30.547Z,3505
2017-07-18T12:28:30.542Z,3400
2017-07-18T12:29:30.253Z,3250
2017-07-18T12:30:30.959Z,3315
2017-07-18T12:31:30.546Z,3390
2017-07-18T12:32:29.950Z,3340
2017-07-18T12:33:30.700Z,3225
2017-07-18T12:34:30.276Z,3260
2017-07-18T12:35:31.621Z,3015
2017-07-18T12:36:30.531Z,2990
2017-07-18T12:37:30.535Z,3185
2017-07-18T12:38:30.535Z,3215
2017-07-18T12:39:30.538Z,3225
2017-07-18T12:40:30.233Z,3405
2017-07-18T12:41:30.527Z,3350
2017-07-18T12:42:30.237Z,3280
2017-07-18T12:43:31.065Z,3315
2017-07-18T12:44:30.443Z,3295
2017-07-18T12:45:30.160Z,3255
2017-07-18T12:46:30.204Z,3325
2017-07-18T12:47:30.384Z,3450
2017-07-18T12:48:30.850Z,3205
2017-07-18T12:49:30.757Z,3235
2017-07-18T12:50:30.260Z,3185
2017-07-18T12:51:30.529Z,3120
2017-07-18T12:52:30.530Z,3160
2017-07-18T12:53:30.527Z,3170
2017-07-18T12:54:30.827Z,3110
2017-07-18T12:55:30.540Z,2820
2017-07-18T12:56:30.224Z,2680
2017-07-18T12:57:30.532Z,2805
2017-07-18T12:58:29.953Z,3035
2017-07-18T12:59:30.526Z,3220
2017-07-18T13:00:30.240Z,3295
2017-07-18T13:01:30.286Z,3220
2017-07-18T13:02:30.527Z,3110
2017-07-18T13:03:30.520Z,3170
2017-07-18T13:04:30.222Z,3265
2017-07-18T13:05:30.222Z,3250
2017-07-18T13:06:30.228Z,3295
2017-07-18T13:07:30.526Z,3155
2017-07-18T13:08:30.224Z,3175
2017-07-18T13:09:30.520Z,3135
2017-07-18T13:10:30.224Z,3130
2017-07-18T13:11:30.533Z,3125
2017-07-18T13:12:30.233Z,3075
2017-07-18T13:13:32.178Z,3125
2017-07-18T13:14:30.293Z,3150
2017-07-18T13:15:30.225Z,3085
2017-07-18T13:16:30.528Z,3235
2017-07-18T13:17:30.526Z,3245
2017-07-18T13:18:30.232Z,3265
2017-07-18T13:19:30.525Z,3270
2017-07-18T13:20:30.533Z,3220
2017-07-18T13:21:30.231Z,3265
2017-07-18T13:22:30.226Z,3255
2017-07-18T13:23:30.264Z,3220
2017-07-18T13:24:30.282Z,3230
2017-07-18T13:25:30.224Z,3220
2017-07-18T13:26:30.221Z,3030
2017-07-18T13:27:30.223Z,3000
2017-07-18T13:28:30.227Z,3110
2017-07-18T13:29:30.523Z,3100
2017-07-18T13:30:30.318Z,3170
2017-07-18T13:31:29.960Z,3315
2017-07-18T13:32:30.215Z,3200
2017-07-18T13:33:30.217Z,3215
2017-07-18T13:34:29.923Z,3190
2017-07-18T13:35:30.373Z,3085
2017-07-18T13:36:30.231Z,3050
2017-07-18T13:37:30.472Z,3240
2017-07-18T13:38:30.219Z,3185
2017-07-18T13:39:30.515Z,3135
2017-07-18T13:40:30.233Z,3145
2017-07-18T13:41:30.521Z,3160
2017-07-18T13:42:30.515Z,3125
2017-07-18T13:43:30.224Z,3060
2017-07-18T13:44:30.519Z,2925
2017-07-18T13:45:30.232Z,2865
2017-07-18T13:46:30.518Z,2870
2017-07-18T13:47:30.520Z,2990